Terminal Aerodrome Forecast
Issued by NWS Spokane, WA

Home | Current Version | Previous Version | Text Only | Print | Product List | Glossary On
Versions: 1 2 3 4 5 6 7 8 9 10 11 12 13
000
FTUS46 KOTX 251721
TAFEAT
TAF
KEAT 251721Z 2518/2618 28003KT P6SM FEW060
     FM251900 VRB02KT P6SM FEW040 SCT200
     FM260500 33006KT P6SM BKN080 OVC150
     FM260700 31004KT 6SM -SN SCT035 OVC060
     FM261400 00000KT 2SM -SN OVC015=

USA.gov is the U.S. government's official web portal to all federal, state and local government web resources and services.